Time;durP1;ratioP1;P1;durP2;ratioP2;P2;SDS_P1;SDS_P2;PMS_P1;PMS_P2;Temp;Humidity;BMP_temperature;BMP_pressure;BME280_temperature;BME280_humidity;BME280_pressure;Samples;Min_cycle;Max_cycle;Signal;HPM_P1;HPM_P2
2022/01/30 00:01:42;;;;;;;39.88;5.85;;;6.70;99.90;;;;;;5076771;28;20497;-88
2022/01/30 00:04:08;;;;;;;25.77;4.22;;;6.70;99.90;;;;;;5100901;27;20036;-88
2022/01/30 00:06:33;;;;;;;28.15;4.70;;;6.70;99.90;;;;;;5096566;27;20046;-88
2022/01/30 00:08:59;;;;;;;27.85;4.88;;;6.70;99.90;;;;;;5097218;27;20031;-89
2022/01/30 00:11:29;;;;;;;31.48;4.82;;;6.70;99.90;;;;;;5106318;28;20040;-88
2022/01/30 00:13:56;;;;;;;23.70;5.55;;;6.70;99.90;;;;;;5071438;28;20044;-88
2022/01/30 00:16:24;;;;;;;30.40;5.35;;;6.90;99.90;;;;;;5096224;28;20093;-88
2022/01/30 00:19:01;;;;;;;33.72;4.70;;;6.90;99.90;;;;;;5097531;28;20040;-89
2022/01/30 00:24:17;;;;;;;31.27;5.32;;;6.80;99.90;;;;;;5094486;28;20059;-88
2022/01/30 00:26:42;;;;;;;20.90;4.03;;;6.80;99.90;;;;;;5106008;28;20031;-88
2022/01/30 00:29:08;;;;;;;37.42;5.18;;;6.80;99.90;;;;;;5056251;28;20055;-88
2022/01/30 00:31:36;;;;;;;21.98;4.00;;;6.80;99.90;;;;;;5073005;28;20686;-89
2022/01/30 00:34:02;;;;;;;25.73;3.75;;;6.80;99.90;;;;;;5076119;28;20105;-88
2022/01/30 00:36:30;;;;;;;40.30;4.45;;;6.70;99.90;;;;;;5076687;28;20047;-88
2022/01/30 00:38:56;;;;;;;30.70;3.97;;;6.60;99.90;;;;;;5075203;28;20058;-88
2022/01/30 00:41:22;;;;;;;27.10;3.95;;;6.60;99.90;;;;;;5076366;28;20126;-89
2022/01/30 00:43:48;;;;;;;31.27;4.20;;;6.60;99.90;;;;;;5075751;28;20126;-87
2022/01/30 00:46:13;;;;;;;33.75;5.63;;;6.50;99.90;;;;;;5073336;28;20039;-88
2022/01/30 00:48:39;;;;;;;22.58;5.10;;;6.50;99.90;;;;;;5055462;28;20052;-89
2022/01/30 00:51:05;;;;;;;18.60;2.92;;;6.50;99.90;;;;;;5056415;28;20044;-88
2022/01/30 00:53:30;;;;;;;28.80;4.30;;;6.60;99.90;;;;;;5056315;28;20461;-88
2022/01/30 00:55:56;;;;;;;32.83;4.47;;;6.60;99.90;;;;;;5056089;28;20079;-88
2022/01/30 00:58:21;;;;;;;24.52;4.50;;;6.60;99.90;;;;;;5056229;28;20079;-88
2022/01/30 01:00:47;;;;;;;24.10;4.80;;;6.70;99.90;;;;;;5055797;28;20040;-88
2022/01/30 01:03:13;;;;;;;28.77;5.35;;;6.60;99.90;;;;;;5075041;28;20043;-88
2022/01/30 01:05:38;;;;;;;17.75;4.00;;;6.60;99.90;;;;;;5056213;28;20080;-89
2022/01/30 01:08:14;;;;;;;12.02;2.50;;;6.50;99.90;;;;;;5072544;28;20040;-89
2022/01/30 01:10:55;;;;;;;16.45;3.15;;;6.40;99.90;;;;;;5056102;28;20036;-88
2022/01/30 01:24:04;;;;;;;27.17;4.72;;;5.70;99.90;;;;;;5092599;28;20043;-88
2022/01/30 01:26:30;;;;;;;25.98;4.32;;;5.70;99.90;;;;;;5092674;28;20052;-89
2022/01/30 01:28:57;;;;;;;30.63;4.95;;;5.70;99.90;;;;;;5092506;28;20067;-88
2022/01/30 01:31:23;;;;;;;41.70;4.82;;;5.70;99.90;;;;;;5080087;28;20047;-88
2022/01/30 01:36:28;;;;;;;34.08;4.72;;;5.70;99.90;;;;;;5105175;28;20451;-88
2022/01/30 01:38:53;;;;;;;34.92;6.18;;;5.70;99.90;;;;;;5077958;28;20043;-89
2022/01/30 01:41:21;;;;;;;37.80;4.30;;;5.80;99.90;;;;;;5075043;28;20114;-89
2022/01/30 01:43:49;;;;;;;27.60;4.22;;;5.70;99.90;;;;;;5074806;28;20051;-89
2022/01/30 01:46:21;;;;;;;31.75;4.15;;;5.70;99.90;;;;;;5075192;28;20446;-89
2022/01/30 01:48:49;;;;;;;25.73;4.38;;;5.70;99.90;;;;;;5073203;28;20060;-89
2022/01/30 01:51:19;;;;;;;24.30;4.47;;;5.60;99.90;;;;;;5080641;28;20503;-87
2022/01/30 01:53:47;;;;;;;21.67;3.83;;;5.60;99.90;;;;;;5074287;28;20126;-89
2022/01/30 01:56:14;;;;;;;32.90;5.00;;;5.70;99.90;;;;;;5074631;28;20064;-88
2022/01/30 01:58:40;;;;;;;23.83;4.28;;;5.70;99.90;;;;;;5073935;28;20161;-88
2022/01/30 02:01:07;;;;;;;33.35;5.82;;;5.70;99.90;;;;;;5074305;28;20342;-88
2022/01/30 02:03:38;;;;;;;24.95;4.43;;;5.70;99.90;;;;;;5074023;28;20055;-88
2022/01/30 02:06:05;;;;;;;35.40;4.95;;;5.70;99.90;;;;;;5073145;28;20035;-88
2022/01/30 02:08:35;;;;;;;30.13;3.92;;;5.80;99.90;;;;;;5091189;28;20039;-88
2022/01/30 02:11:06;;;;;;;34.00;4.93;;;5.80;99.90;;;;;;5074484;28;20057;-88
2022/01/30 02:24:21;;;;;;;34.80;4.97;;;5.80;99.90;;;;;;5091004;28;20126;-88
2022/01/30 02:26:47;;;;;;;30.25;4.75;;;5.80;99.90;;;;;;5073426;28;20044;-88
2022/01/30 02:29:13;;;;;;;26.08;5.07;;;5.70;99.90;;;;;;5073760;28;20039;-88
2022/01/30 02:31:41;;;;;;;28.17;4.32;;;5.70;99.90;;;;;;5082547;28;20169;-87
2022/01/30 02:34:08;;;;;;;35.65;5.50;;;5.80;99.90;;;;;;5073562;28;20043;-88
2022/01/30 02:36:47;;;;;;;34.53;4.40;;;5.90;99.90;;;;;;5092114;28;20461;-89
2022/01/30 02:39:13;;;;;;;39.25;6.88;;;5.90;99.90;;;;;;5075222;28;20581;-88
2022/01/30 02:41:39;;;;;;;35.30;5.97;;;5.90;99.90;;;;;;5079692;28;20046;-88
2022/01/30 02:44:11;;;;;;;33.08;4.85;;;5.90;99.90;;;;;;5085024;28;20039;-88
2022/01/30 02:46:46;;;;;;;38.45;5.68;;;5.90;99.90;;;;;;5071676;28;20050;-89
2022/01/30 02:49:28;;;;;;;34.97;4.97;;;6.00;99.90;;;;;;5067765;28;20051;-88
2022/01/30 02:52:00;;;;;;;40.75;5.85;;;6.00;99.90;;;;;;5046345;28;20325;-88
2022/01/30 02:54:27;;;;;;;31.23;5.43;;;6.10;99.90;;;;;;5075133;28;20048;-88
2022/01/30 02:56:52;;;;;;;31.27;4.78;;;6.20;99.90;;;;;;5061172;28;20626;-88
2022/01/30 02:59:18;;;;;;;35.65;4.45;;;6.20;99.90;;;;;;5056480;28;20148;-89
2022/01/30 03:01:44;;;;;;;30.45;4.57;;;6.10;99.90;;;;;;5075112;28;20032;-88
2022/01/30 03:04:10;;;;;;;27.75;4.03;;;6.10;99.90;;;;;;5052873;28;20044;-89
2022/01/30 03:06:37;;;;;;;41.55;5.90;;;6.10;99.90;;;;;;5066442;28;20039;-89
2022/01/30 03:09:05;;;;;;;51.03;5.55;;;6.00;99.90;;;;;;5055512;28;20048;-88
2022/01/30 03:11:31;;;;;;;25.20;4.13;;;6.10;99.90;;;;;;5059908;28;20047;-88
2022/01/30 03:13:56;;;;;;;30.13;4.70;;;6.10;99.90;;;;;;5076889;28;20048;-89
2022/01/30 03:16:22;;;;;;;26.77;4.00;;;6.00;99.90;;;;;;5073389;28;20545;-88
2022/01/30 03:18:48;;;;;;;22.65;4.70;;;6.10;99.90;;;;;;5081616;28;20051;-88
2022/01/30 03:21:14;;;;;;;21.02;4.72;;;6.00;99.90;;;;;;5083931;28;20032;-88
2022/01/30 03:23:40;;;;;;;26.50;4.65;;;6.00;99.90;;;;;;5084034;28;20126;-88
2022/01/30 03:26:06;;;;;;;30.52;3.90;;;6.00;99.90;;;;;;5058110;28;20058;-88
2022/01/30 03:28:32;;;;;;;26.73;4.32;;;6.00;99.90;;;;;;5055161;28;20048;-88
2022/01/30 03:31:03;;;;;;;26.10;4.85;;;6.00;99.90;;;;;;5060269;28;20128;-88
2022/01/30 03:33:29;;;;;;;31.63;5.30;;;5.90;99.90;;;;;;5080432;28;20093;-89
2022/01/30 03:35:55;;;;;;;30.15;5.22;;;5.90;99.90;;;;;;5061128;28;20083;-88
2022/01/30 03:38:22;;;;;;;38.20;5.35;;;5.90;99.90;;;;;;5055054;28;20047;-89
2022/01/30 03:40:49;;;;;;;43.75;5.63;;;5.90;99.90;;;;;;5060688;28;20032;-89
2022/01/30 03:43:14;;;;;;;39.72;6.30;;;5.90;99.90;;;;;;5086067;28;20505;-88
2022/01/30 03:45:40;;;;;;;40.15;5.68;;;5.80;99.90;;;;;;5062938;28;20043;-89
2022/01/30 03:48:06;;;;;;;39.65;6.10;;;5.80;99.90;;;;;;5090091;28;20109;-89
2022/01/30 03:50:32;;;;;;;43.05;6.30;;;5.80;99.90;;;;;;5103480;28;20128;-88
2022/01/30 03:52:59;;;;;;;51.35;7.28;;;5.70;99.90;;;;;;5069390;28;20123;-89
2022/01/30 03:55:25;;;;;;;42.92;5.78;;;5.70;99.90;;;;;;5086965;28;20066;-88
2022/01/30 03:57:51;;;;;;;42.05;6.53;;;5.70;99.90;;;;;;5069150;28;20472;-89
2022/01/30 04:00:17;;;;;;;38.47;5.88;;;5.80;99.90;;;;;;5067726;28;20039;-89
2022/01/30 04:02:43;;;;;;;41.72;5.95;;;5.90;99.90;;;;;;5068118;28;20056;-89
2022/01/30 04:05:09;;;;;;;50.45;6.60;;;5.80;99.90;;;;;;5070728;28;20044;-89
2022/01/30 04:07:35;;;;;;;45.78;6.32;;;5.80;99.90;;;;;;5069598;28;20044;-88
2022/01/30 04:10:03;;;;;;;42.83;6.22;;;5.90;99.90;;;;;;5067047;28;20043;-89
2022/01/30 04:12:28;;;;;;;45.80;8.07;;;5.90;99.90;;;;;;5069897;28;20044;-88
2022/01/30 04:14:54;;;;;;;45.90;7.60;;;5.90;99.90;;;;;;5073510;28;20046;-88
2022/01/30 04:17:20;;;;;;;48.05;7.10;;;6.00;99.90;;;;;;5073230;28;20047;-89
2022/01/30 04:19:46;;;;;;;52.90;6.88;;;6.00;99.90;;;;;;5072634;28;20101;-89
2022/01/30 04:22:12;;;;;;;41.95;6.32;;;6.00;99.90;;;;;;5072081;28;20043;-88
2022/01/30 04:24:38;;;;;;;40.25;6.28;;;6.00;99.90;;;;;;5073045;28;20131;-86
2022/01/30 04:27:04;;;;;;;53.38;7.30;;;6.00;99.90;;;;;;5089788;28;20070;-89
2022/01/30 04:29:30;;;;;;;37.40;6.75;;;5.90;99.90;;;;;;5073270;28;20044;-88
2022/01/30 04:31:56;;;;;;;35.53;6.25;;;6.00;99.90;;;;;;5072771;28;20079;-88
2022/01/30 04:34:23;;;;;;;48.92;7.03;;;6.00;99.90;;;;;;5070906;28;20398;-89
2022/01/30 04:37:02;;;;;;;49.53;6.88;;;5.90;99.90;;;;;;5072978;28;20397;-89
2022/01/30 05:05:43;;;;;;;58.38;8.65;;;5.40;99.90;;;;;;5092467;28;20067;-90
2022/01/30 05:08:09;;;;;;;62.50;8.27;;;5.40;99.90;;;;;;5110079;28;20036;-89
2022/01/30 05:10:35;;;;;;;42.90;6.78;;;5.40;99.90;;;;;;5075230;28;20047;-89
2022/01/30 05:13:04;;;;;;;51.38;7.53;;;5.40;99.90;;;;;;5075685;28;20043;-89
2022/01/30 05:15:30;;;;;;;58.13;8.23;;;5.40;99.90;;;;;;5075744;28;20040;-90
2022/01/30 05:17:56;;;;;;;54.67;8.10;;;5.40;99.90;;;;;;5075941;28;20082;-89
2022/01/30 05:20:22;;;;;;;55.15;8.38;;;5.30;99.90;;;;;;5092715;28;20071;-90
2022/01/30 05:22:47;;;;;;;60.15;8.95;;;5.40;99.90;;;;;;5075592;28;20051;-90
2022/01/30 05:25:14;;;;;;;53.80;7.80;;;5.40;99.90;;;;;;5069425;28;20054;-90
2022/01/30 05:27:40;;;;;;;54.72;8.13;;;5.40;99.90;;;;;;5074115;28;20463;-90
2022/01/30 05:30:07;;;;;;;62.80;7.93;;;5.30;99.90;;;;;;5075818;28;20071;-90
2022/01/30 05:32:34;;;;;;;56.78;9.63;;;5.30;99.90;;;;;;5074965;28;20126;-89
2022/01/30 05:34:59;;;;;;;59.38;8.95;;;5.30;99.90;;;;;;5075397;28;20112;-89
2022/01/30 05:37:25;;;;;;;64.38;8.32;;;5.50;99.90;;;;;;5067936;28;20040;-90
2022/01/30 05:39:51;;;;;;;49.95;8.32;;;5.50;99.90;;;;;;5075006;28;20047;-90
2022/01/30 05:42:21;;;;;;;53.90;7.53;;;5.60;99.90;;;;;;5074813;28;20075;-89
2022/01/30 05:47:39;;;;;;;47.47;7.55;;;5.60;99.90;;;;;;5091683;28;20043;-89
2022/01/30 05:50:05;;;;;;;;;;;5.80;99.90;;;;;;5070686;28;20040;-89
2022/01/30 05:52:30;;;;;;;51.83;7.40;;;5.80;99.90;;;;;;5091759;28;19920;-89
2022/01/30 05:54:56;;;;;;;44.90;7.38;;;5.70;99.90;;;;;;5074534;28;20036;-89
2022/01/30 05:57:21;;;;;;;58.92;8.18;;;5.70;99.90;;;;;;5074533;28;20043;-89
2022/01/30 05:59:47;;;;;;;50.40;8.93;;;5.60;99.90;;;;;;5074052;28;20040;-89
2022/01/30 06:02:12;;;;;;;58.58;9.18;;;5.60;99.90;;;;;;5068782;28;20040;-89
2022/01/30 06:04:38;;;;;;;61.83;8.25;;;5.60;99.90;;;;;;5079032;28;20039;-88
2022/01/30 06:07:06;;;;;;;44.67;7.55;;;5.60;99.90;;;;;;5074100;28;20050;-88
2022/01/30 06:09:31;;;;;;;52.10;7.82;;;5.50;99.90;;;;;;5090149;28;20560;-89
2022/01/30 06:11:57;;;;;;;56.35;8.95;;;5.50;99.90;;;;;;5087491;28;20127;-90
2022/01/30 06:14:23;;;;;;;57.28;8.25;;;5.50;99.90;;;;;;5076154;28;20046;-89
2022/01/30 06:16:49;;;;;;;51.45;8.43;;;5.60;99.90;;;;;;5073996;28;20047;-90
2022/01/30 06:19:18;;;;;;;51.67;7.88;;;5.50;99.90;;;;;;5068918;28;20046;-89
2022/01/30 06:21:47;;;;;;;59.95;9.07;;;5.50;99.90;;;;;;5107645;28;20039;-88
2022/01/30 06:24:12;;;;;;;56.22;8.82;;;5.50;99.90;;;;;;5074077;28;20501;-89
2022/01/30 06:26:38;;;;;;;62.08;9.68;;;5.50;99.90;;;;;;5074001;28;20047;-89
2022/01/30 06:29:04;;;;;;;51.63;8.48;;;5.50;99.90;;;;;;5074318;28;20115;-89
2022/01/30 06:31:29;;;;;;;61.35;8.60;;;5.50;99.90;;;;;;5073525;28;20421;-89
2022/01/30 06:33:55;;;;;;;50.53;7.88;;;5.50;99.90;;;;;;5073408;28;20073;-88
2022/01/30 06:36:21;;;;;;;51.67;8.38;;;5.50;99.90;;;;;;5073504;28;20043;-89
2022/01/30 06:38:47;;;;;;;49.97;6.70;;;5.50;99.90;;;;;;5073618;28;20093;-89
2022/01/30 06:41:13;;;;;;;50.60;8.30;;;5.60;99.90;;;;;;5074285;28;20043;-89
2022/01/30 06:43:39;;;;;;;55.97;8.13;;;5.60;99.90;;;;;;5074045;28;20043;-89
2022/01/30 06:46:05;;;;;;;56.20;8.65;;;5.70;99.90;;;;;;5073954;28;20036;-90
2022/01/30 06:48:30;;;;;;;52.03;8.27;;;5.70;99.90;;;;;;5074086;28;20047;-89
2022/01/30 06:50:56;;;;;;;52.30;8.52;;;5.80;99.90;;;;;;5087610;28;20049;-89
2022/01/30 06:53:24;;;;;;;71.47;9.23;;;5.80;99.90;;;;;;5073543;28;20043;-89
2022/01/30 06:55:50;;;;;;;52.25;7.90;;;5.70;99.90;;;;;;5073395;28;20044;-89
2022/01/30 06:58:15;;;;;;;60.72;8.50;;;5.80;99.90;;;;;;5107095;28;20370;-89
2022/01/30 07:00:42;;;;;;;65.30;8.40;;;5.90;99.90;;;;;;5077427;28;20032;-89
2022/01/30 07:03:07;;;;;;;53.42;8.55;;;5.90;99.90;;;;;;5075106;28;20051;-88
2022/01/30 07:05:33;;;;;;;56.40;7.97;;;5.90;99.90;;;;;;5073213;28;20397;-88
2022/01/30 07:07:59;;;;;;;50.55;8.00;;;5.90;99.90;;;;;;5073961;28;20146;-90
2022/01/30 07:10:25;;;;;;;59.08;7.75;;;5.90;99.90;;;;;;5075125;28;20101;-89
2022/01/30 07:12:50;;;;;;;65.78;8.30;;;5.90;99.90;;;;;;5073591;28;20051;-89
2022/01/30 07:15:16;;;;;;;47.72;7.75;;;5.90;99.90;;;;;;5074535;28;20039;-89
2022/01/30 07:17:42;;;;;;;49.22;7.15;;;5.90;99.90;;;;;;5073782;28;20084;-88
2022/01/30 07:20:09;;;;;;;52.58;7.03;;;5.80;99.90;;;;;;5073444;28;20040;-88
2022/01/30 07:22:35;;;;;;;54.53;7.25;;;5.80;99.90;;;;;;5070534;28;20044;-88
2022/01/30 07:25:00;;;;;;;56.17;8.20;;;5.90;99.90;;;;;;5072583;28;20040;-88
2022/01/30 07:27:26;;;;;;;58.63;8.38;;;5.90;99.90;;;;;;5071170;28;20044;-88
2022/01/30 07:29:52;;;;;;;67.63;9.10;;;5.80;99.90;;;;;;5081911;28;20461;-89
2022/01/30 07:32:17;;;;;;;64.55;8.80;;;5.90;99.90;;;;;;5056927;28;20485;-89
2022/01/30 07:34:44;;;;;;;39.22;6.68;;;6.00;99.90;;;;;;5083292;28;20035;-88
2022/01/30 07:37:11;;;;;;;59.25;8.02;;;6.00;99.90;;;;;;5057779;28;20043;-89
2022/01/30 07:39:38;;;;;;;54.47;8.73;;;6.00;99.90;;;;;;5064635;28;20044;-88
2022/01/30 07:42:04;;;;;;;62.78;8.82;;;6.00;99.90;;;;;;5073121;28;20044;-89
2022/01/30 07:44:30;;;;;;;50.20;7.90;;;6.00;99.90;;;;;;5072710;28;20111;-88
2022/01/30 07:46:55;;;;;;;63.97;9.88;;;6.00;99.90;;;;;;5069875;28;20127;-88
2022/01/30 07:49:21;;;;;;;65.03;13.45;;;6.00;99.90;;;;;;5074106;28;20056;-88
2022/01/30 07:51:47;;;;;;;49.60;9.50;;;6.00;99.90;;;;;;5073900;28;20044;-89
2022/01/30 07:54:12;;;;;;;76.25;12.52;;;6.00;99.90;;;;;;5090226;28;20047;-88
2022/01/30 07:56:38;;;;;;;70.20;17.60;;;6.10;99.90;;;;;;5079799;28;20039;-88
2022/01/30 07:59:04;;;;;;;91.90;22.00;;;6.10;99.90;;;;;;5077931;28;20505;-89
2022/01/30 08:01:29;;;;;;;162.45;60.67;;;6.00;99.90;;;;;;5077790;28;20123;-89
2022/01/30 08:03:55;;;;;;;154.65;58.03;;;6.00;99.90;;;;;;5076878;28;20051;-89
2022/01/30 08:06:20;;;;;;;97.43;23.55;;;6.00;99.90;;;;;;5072610;28;20044;-88
2022/01/30 08:08:46;;;;;;;75.47;12.23;;;6.00;99.90;;;;;;5084141;28;20044;-89
2022/01/30 08:11:11;;;;;;;89.85;14.95;;;5.90;99.90;;;;;;5070529;28;20078;-89
2022/01/30 08:13:37;;;;;;;57.83;10.02;;;5.90;99.90;;;;;;5067286;28;20097;-89
2022/01/30 08:16:03;;;;;;;68.55;14.60;;;5.90;99.90;;;;;;5074339;28;20131;-88
2022/01/30 08:18:29;;;;;;;70.13;10.40;;;6.00;99.90;;;;;;5071508;28;20051;-89
2022/01/30 08:20:55;;;;;;;61.75;10.18;;;6.00;99.90;;;;;;5074615;28;20084;-90
2022/01/30 08:23:23;;;;;;;63.13;9.07;;;5.90;99.90;;;;;;5058025;28;20050;-90
2022/01/30 08:25:49;;;;;;;80.80;18.05;;;5.90;99.90;;;;;;5070969;28;20123;-89
2022/01/30 08:28:14;;;;;;;67.50;12.85;;;5.80;99.90;;;;;;5090466;28;20150;-90
2022/01/30 08:30:40;;;;;;;68.18;9.10;;;5.80;99.90;;;;;;5073939;28;20042;-90
2022/01/30 08:33:06;;;;;;;68.35;12.55;;;5.80;99.90;;;;;;5081193;28;20043;-89
2022/01/30 08:35:32;;;;;;;65.32;10.98;;;5.70;99.90;;;;;;5077007;28;20504;-89
2022/01/30 08:37:59;;;;;;;50.90;7.93;;;5.80;99.90;;;;;;5093626;28;20054;-89
2022/01/30 08:40:26;;;;;;;53.60;8.15;;;5.90;99.90;;;;;;5081137;28;20431;-90
2022/01/30 08:42:51;;;;;;;47.63;7.63;;;6.00;99.90;;;;;;5074881;28;20097;-89
2022/01/30 08:45:20;;;;;;;61.00;19.70;;;6.10;99.90;;;;;;5075915;28;20044;-89
2022/01/30 08:47:47;;;;;;;58.53;8.30;;;6.00;99.90;;;;;;5075735;27;20069;-90
2022/01/30 08:50:15;;;;;;;50.63;7.72;;;6.10;99.90;;;;;;5078731;28;20463;-89
2022/01/30 08:52:42;;;;;;;50.60;8.20;;;6.00;99.90;;;;;;5070679;28;20046;-90
2022/01/30 08:55:09;;;;;;;48.45;7.97;;;6.10;99.90;;;;;;5076905;28;20043;-88
2022/01/30 08:57:35;;;;;;;64.10;7.95;;;6.10;99.90;;;;;;5110324;28;20075;-88
2022/01/30 09:00:02;;;;;;;59.70;8.40;;;6.10;99.90;;;;;;5091866;28;20164;-91
2022/01/30 09:02:28;;;;;;;55.80;8.20;;;6.10;99.90;;;;;;5075817;28;20087;-89
2022/01/30 09:04:53;;;;;;;52.15;8.25;;;6.00;99.90;;;;;;5076360;28;20088;-89
2022/01/30 09:07:19;;;;;;;53.63;8.13;;;6.00;99.90;;;;;;5093781;28;20039;-89
2022/01/30 09:09:45;;;;;;;57.05;8.30;;;6.20;99.90;;;;;;5076521;28;20108;-89
2022/01/30 09:12:12;;;;;;;57.15;8.70;;;6.30;99.90;;;;;;5073183;28;20492;-89
2022/01/30 09:14:39;;;;;;;52.08;8.57;;;6.50;99.90;;;;;;5068540;28;20123;-88
2022/01/30 09:17:13;;;;;;;57.35;9.45;;;6.60;99.90;;;;;;5085718;28;20075;-89
2022/01/30 09:19:41;;;;;;;58.78;8.80;;;6.60;99.90;;;;;;5069691;28;20093;-88
2022/01/30 09:22:08;;;;;;;51.70;7.70;;;6.60;99.90;;;;;;5075664;28;20052;-89
2022/01/30 09:24:34;;;;;;;57.95;8.18;;;6.60;99.90;;;;;;5076305;28;20039;-89
2022/01/30 09:27:00;;;;;;;56.53;9.15;;;6.50;99.90;;;;;;5098675;28;20059;-89
2022/01/30 09:29:27;;;;;;;55.60;7.35;;;6.50;99.90;;;;;;5073793;28;20140;-89
2022/01/30 09:31:52;;;;;;;54.75;10.45;;;6.40;99.90;;;;;;5086335;28;20495;-89
2022/01/30 09:34:18;;;;;;;61.25;9.05;;;6.30;99.90;;;;;;5076290;28;20130;-89
2022/01/30 09:36:44;;;;;;;51.63;8.63;;;6.30;99.90;;;;;;5072029;28;20056;-88
2022/01/30 09:39:09;;;;;;;55.15;7.95;;;6.30;99.90;;;;;;5089217;28;20039;-89
2022/01/30 09:41:36;;;;;;;68.03;10.30;;;6.40;99.90;;;;;;5072193;28;20177;-89
2022/01/30 09:44:02;;;;;;;70.55;8.48;;;6.50;99.90;;;;;;5070977;28;20052;-89
2022/01/30 09:46:32;;;;;;;58.85;8.63;;;6.70;99.90;;;;;;5072629;28;20374;-88
2022/01/30 09:48:59;;;;;;;43.33;7.95;;;6.60;99.90;;;;;;5074894;28;20040;-88
2022/01/30 09:51:25;;;;;;;52.83;8.35;;;6.60;99.90;;;;;;5073906;28;20884;-88
2022/01/30 09:53:51;;;;;;;64.78;9.27;;;6.60;99.90;;;;;;5070946;28;20379;-89
2022/01/30 09:56:18;;;;;;;65.90;8.20;;;6.80;99.90;;;;;;5075027;28;20046;-89
2022/01/30 09:58:45;;;;;;;55.55;7.70;;;7.00;99.90;;;;;;5074665;28;20060;-88
2022/01/30 10:01:11;;;;;;;58.97;8.50;;;7.10;99.90;;;;;;5073436;28;20036;-88
2022/01/30 10:03:37;;;;;;;61.08;8.27;;;7.20;99.90;;;;;;5099714;28;20044;-87
2022/01/30 10:06:14;;;;;;;59.22;8.23;;;7.20;99.90;;;;;;5086733;28;20431;-87
2022/01/30 10:08:46;;;;;;;51.70;9.10;;;7.20;99.90;;;;;;5064681;28;20039;-87
2022/01/30 10:11:37;;;;;;;45.95;7.75;;;7.00;99.90;;;;;;5069917;28;20082;-87
2022/01/30 10:14:04;;;;;;;45.83;7.68;;;6.90;99.90;;;;;;5090059;28;20052;-86
2022/01/30 10:16:42;;;;;;;48.15;7.72;;;7.00;99.90;;;;;;5074659;28;20062;-87
2022/01/30 10:19:20;;;;;;;52.47;9.23;;;7.20;99.90;;;;;;5105877;28;20054;-87
2022/01/30 10:21:50;;;;;;;54.13;9.45;;;7.40;99.90;;;;;;5073716;28;20039;-87
2022/01/30 10:24:24;;;;;;;52.10;10.68;;;7.60;99.90;;;;;;5073423;28;20039;-89
2022/01/30 10:26:49;;;;;;;;;;;7.80;99.90;;;;;;5075652;28;20039;-88
2022/01/30 10:29:23;;;;;;;55.00;8.65;;;7.70;99.90;;;;;;5091489;28;20462;-88
2022/01/30 10:32:03;;;;;;;60.25;8.35;;;7.90;99.90;;;;;;5074519;28;20036;-88
2022/01/30 10:34:29;;;;;;;72.57;23.80;;;7.80;99.90;;;;;;5082228;28;20057;-87
2022/01/30 10:37:31;;;;;;;63.92;13.30;;;7.90;99.90;;;;;;5074645;28;20069;-89
2022/01/30 10:40:15;;;;;;;68.43;11.40;;;7.70;99.90;;;;;;5009849;28;20933;-90
2022/01/30 10:42:48;;;;;;;53.25;12.05;;;7.40;99.90;;;;;;5010583;28;20091;-87
2022/01/30 10:45:33;;;;;;;64.28;8.82;;;7.40;99.90;;;;;;4993277;28;20128;-87
2022/01/30 10:48:16;;;;;;;71.95;10.18;;;7.30;99.90;;;;;;5009652;28;20056;-86
2022/01/30 10:50:44;;;;;;;56.63;10.75;;;7.30;99.90;;;;;;5009619;28;20085;-86
2022/01/30 10:53:24;;;;;;;71.53;9.27;;;7.50;99.90;;;;;;4986873;28;20041;-86
2022/01/30 10:55:50;;;;;;;71.43;11.65;;;7.60;99.90;;;;;;5020143;28;20052;-89
2022/01/30 10:58:18;;;;;;;63.72;13.40;;;7.80;99.90;;;;;;4992837;28;20518;-88
2022/01/30 11:01:05;;;;;;;57.10;10.05;;;7.90;99.90;;;;;;5009759;28;20049;-87
2022/01/30 11:03:44;;;;;;;54.78;9.10;;;7.80;99.90;;;;;;5003045;28;20048;-88
2022/01/30 11:06:13;;;;;;;49.75;8.75;;;8.00;99.90;;;;;;4992901;28;20045;-87
2022/01/30 11:08:41;;;;;;;65.30;9.63;;;7.80;99.90;;;;;;5012392;28;20044;-88
2022/01/30 11:11:23;;;;;;;70.35;10.23;;;7.50;99.90;;;;;;4986669;28;20188;-89
2022/01/30 11:14:02;;;;;;;49.45;7.93;;;7.40;99.90;;;;;;5037921;28;20051;-88
2022/01/30 11:19:16;;;;;;;56.60;7.30;;;7.30;99.90;;;;;;5076393;28;20493;-87
2022/01/30 11:21:44;;;;;;;46.40;7.57;;;7.40;99.90;;;;;;5064442;28;20044;-88
2022/01/30 11:24:12;;;;;;;55.15;7.80;;;7.50;99.90;;;;;;5094536;28;20050;-88
2022/01/30 11:26:38;;;;;;;51.30;7.68;;;7.30;99.90;;;;;;5076969;28;20055;-87
2022/01/30 11:29:10;;;;;;;53.42;7.75;;;7.30;99.90;;;;;;5078084;28;20036;-87
2022/01/30 11:31:36;;;;;;;50.40;8.25;;;7.30;99.30;;;;;;5078106;28;20055;-88
2022/01/30 11:34:03;;;;;;;54.78;7.88;;;7.30;99.90;;;;;;5074119;28;20035;-88
2022/01/30 11:36:30;;;;;;;50.58;7.43;;;7.30;99.50;;;;;;5069558;28;20051;-88
2022/01/30 11:38:56;;;;;;;47.22;7.65;;;7.20;99.90;;;;;;5074335;28;20036;-87
2022/01/30 11:41:21;;;;;;;40.78;8.88;;;7.20;99.80;;;;;;5072354;28;20038;-89
2022/01/30 11:44:21;;;;;;;52.88;8.50;;;7.20;97.50;;;;;;5074345;28;20587;-87
2022/01/30 11:46:57;;;;;;;67.07;8.35;;;7.20;98.60;;;;;;5073827;28;20051;-88
2022/01/30 11:49:36;;;;;;;48.95;7.82;;;7.20;98.50;;;;;;5108807;28;20517;-87
2022/01/30 11:52:02;;;;;;;45.58;7.78;;;7.30;96.80;;;;;;5077940;28;20768;-87
2022/01/30 11:54:38;;;;;;;53.50;8.23;;;7.40;98.40;;;;;;5077148;28;20043;-88
2022/01/30 11:57:27;;;;;;;53.17;7.65;;;7.50;99.10;;;;;;5074548;28;20063;-88
2022/01/30 11:59:56;;;;;;;57.90;8.07;;;7.40;97.50;;;;;;5077300;28;20598;-88
2022/01/30 12:02:33;;;;;;;46.97;6.75;;;7.20;96.10;;;;;;5077262;28;20084;-87
2022/01/30 12:05:08;;;;;;;43.65;7.57;;;7.10;97.90;;;;;;5077723;28;20183;-87
2022/01/30 12:07:49;;;;;;;44.33;7.18;;;7.10;98.00;;;;;;5069792;28;20493;-87
2022/01/30 12:10:21;;;;;;;45.90;7.38;;;7.10;97.40;;;;;;5077160;28;20043;-87
2022/01/30 12:13:02;;;;;;;51.25;8.18;;;7.10;97.30;;;;;;5077585;28;20050;-87
2022/01/30 12:15:39;;;;;;;50.05;7.30;;;7.30;99.20;;;;;;5077358;28;20410;-88
2022/01/30 12:18:08;;;;;;;62.58;16.15;;;7.30;99.90;;;;;;5094223;28;20126;-87
2022/01/30 12:20:56;;;;;;;60.63;14.20;;;7.40;98.90;;;;;;5090621;28;20398;-87
2022/01/30 12:23:30;;;;;;;57.53;12.88;;;7.40;99.90;;;;;;5084727;28;20044;-89
2022/01/30 12:26:04;;;;;;;54.83;10.75;;;7.50;98.70;;;;;;5109570;28;20565;-87
2022/01/30 12:28:42;;;;;;;;;;;7.60;99.20;;;;;;5077152;28;20040;-88
2022/01/30 12:31:25;;;;;;;47.05;14.32;;;7.70;99.40;;;;;;5077350;28;20434;-88
2022/01/30 12:34:09;;;;;;;56.20;8.10;;;7.80;99.20;;;;;;5087129;28;20075;-88
2022/01/30 12:36:37;;;;;;;41.17;6.93;;;7.90;99.20;;;;;;5075991;28;20043;-88
2022/01/30 12:39:16;;;;;;;48.85;7.68;;;7.80;99.70;;;;;;5110477;28;20039;-88
2022/01/30 12:41:42;;;;;;;43.65;7.30;;;7.70;94.90;;;;;;5076396;28;20039;-87
2022/01/30 12:44:10;;;;;;;50.15;6.75;;;7.50;95.40;;;;;;5077263;28;20558;-87
2022/01/30 12:46:46;;;;;;;49.03;7.65;;;7.40;98.00;;;;;;5076440;28;20088;-88
2022/01/30 12:49:28;;;;;;;43.35;7.05;;;7.50;99.90;;;;;;5076970;28;20058;-88
2022/01/30 12:51:56;;;;;;;44.33;7.40;;;7.50;99.90;;;;;;5076636;28;20075;-88
2022/01/30 12:54:25;;;;;;;46.55;7.18;;;7.50;99.90;;;;;;5075901;28;20043;-89
2022/01/30 12:56:52;;;;;;;48.63;8.68;;;7.60;98.20;;;;;;5076580;28;20092;-88
2022/01/30 12:59:19;;;;;;;64.53;7.60;;;7.40;98.20;;;;;;5076676;28;20035;-88
2022/01/30 13:01:47;;;;;;;38.92;6.75;;;7.40;99.20;;;;;;5084743;28;20086;-88
2022/01/30 13:04:23;;;;;;;54.10;8.20;;;7.40;99.50;;;;;;5076027;28;20075;-87
2022/01/30 13:06:52;;;;;;;66.70;8.45;;;7.40;99.90;;;;;;5092442;28;20085;-88
2022/01/30 13:09:28;;;;;;;48.55;7.35;;;7.30;99.90;;;;;;5092609;28;20036;-87
2022/01/30 13:11:55;;;;;;;49.95;8.32;;;7.30;99.90;;;;;;5066592;28;20043;-88
2022/01/30 13:14:22;;;;;;;58.28;10.50;;;7.30;99.90;;;;;;5109433;28;20055;-88
2022/01/30 13:16:49;;;;;;;40.28;8.02;;;7.30;99.90;;;;;;5092767;28;20385;-87
2022/01/30 13:19:33;;;;;;;45.83;8.05;;;7.50;99.90;;;;;;5075844;28;20046;-87
2022/01/30 13:22:01;;;;;;;45.92;8.18;;;7.50;99.90;;;;;;5067979;28;20039;-87
2022/01/30 13:24:27;;;;;;;60.00;7.70;;;7.70;99.90;;;;;;5075150;28;20084;-87
2022/01/30 13:27:19;;;;;;;45.85;8.18;;;7.80;99.90;;;;;;5067658;28;20044;-88
2022/01/30 13:29:44;;;;;;;101.35;8.48;;;7.90;98.60;;;;;;5071189;28;20134;-86
2022/01/30 13:32:11;;;;;;;50.20;7.65;;;8.00;99.90;;;;;;5075665;28;20127;-87
2022/01/30 13:34:39;;;;;;;53.13;9.93;;;7.90;97.30;;;;;;5098365;28;20559;-87
2022/01/30 13:37:16;;;;;;;33.20;5.97;;;7.90;98.30;;;;;;5074983;28;20032;-87
2022/01/30 13:40:00;;;;;;;33.42;5.88;;;7.80;96.80;;;;;;5109152;28;20142;-87
2022/01/30 13:48:01;;;;;;;50.90;7.45;;;7.10;93.20;;;;;;5091943;28;20052;-87
2022/01/30 13:50:43;;;;;;;37.55;5.93;;;7.00;92.50;;;;;;5075461;28;20087;-88
2022/01/30 13:53:12;;;;;;;46.13;5.85;;;7.00;94.60;;;;;;5108110;28;20048;-88
2022/01/30 13:55:51;;;;;;;41.38;6.78;;;6.90;94.60;;;;;;5074887;28;20130;-87
2022/01/30 13:58:18;;;;;;;45.03;7.35;;;6.80;94.40;;;;;;5091849;28;20119;-87